Time;durP1;ratioP1;P1;durP2;ratioP2;P2;SDS_P1;SDS_P2;PMS_P1;PMS_P2;Temp;Humidity;BMP_temperature;BMP_pressure;BME280_temperature;BME280_humidity;BME280_pressure;Samples;Min_cycle;Max_cycle;Signal;HPM_P1;HPM_P2
2022/01/11 00:00:13;;;;;;;30.03;12.20;;;;;;;-1.65;100.00;102807.94;2090580;28;20044;-66
2022/01/11 00:01:14;;;;;;;29.50;11.25;;;;;;;-1.64;100.00;102814.81;2090564;28;20493;-67
2022/01/11 00:02:16;;;;;;;24.30;10.07;;;;;;;-1.63;100.00;102810.56;2090507;28;20025;-66
2022/01/11 00:03:19;;;;;;;26.25;9.65;;;;;;;-1.63;100.00;102814.00;2089970;28;20075;-66
2022/01/11 00:04:20;;;;;;;34.08;10.32;;;;;;;-1.63;100.00;102816.56;2089806;28;20433;-68
2022/01/11 00:06:54;;;;;;;;;;;;;;;-1.61;100.00;102826.88;2090940;28;19936;-67
2022/01/11 00:07:55;;;;;;;24.85;9.57;;;;;;;-1.62;100.00;102826.00;2089993;28;20370;-67
2022/01/11 00:09:00;;;;;;;27.60;9.57;;;;;;;-1.63;100.00;102826.81;2090445;28;20466;-67
2022/01/11 00:10:06;;;;;;;28.35;10.75;;;;;;;-1.63;100.00;102821.69;2090439;28;20021;-67
2022/01/11 00:11:06;;;;;;;25.38;12.63;;;;;;;-1.64;100.00;102832.72;2090409;28;20108;-67
2022/01/11 00:12:08;;;;;;;28.97;9.80;;;;;;;-1.64;100.00;102831.88;2090547;28;20021;-67
2022/01/11 00:13:09;;;;;;;29.02;11.77;;;;;;;-1.66;100.00;102839.50;2090570;28;20130;-67
2022/01/11 00:14:09;;;;;;;28.37;9.80;;;;;;;-1.65;100.00;102833.53;2090516;28;20155;-68
2022/01/11 00:15:09;;;;;;;29.30;11.30;;;;;;;-1.61;100.00;102843.09;2090515;28;20021;-68
2022/01/11 00:16:13;;;;;;;30.03;11.93;;;;;;;-1.57;100.00;102839.00;2090523;28;20096;-68
2022/01/11 00:17:13;;;;;;;30.58;10.32;;;;;;;-1.54;100.00;102844.22;2090493;28;20025;-68
2022/01/11 00:18:15;;;;;;;39.47;10.63;;;;;;;-1.52;100.00;102841.72;2089801;28;20033;-68
2022/01/11 00:19:15;;;;;;;28.08;10.60;;;;;;;-1.50;100.00;102850.34;2089873;28;20044;-67
2022/01/11 00:20:18;;;;;;;26.50;9.27;;;;;;;-1.53;100.00;102847.66;2089782;28;20025;-67
2022/01/11 00:21:19;;;;;;;29.48;10.35;;;;;;;-1.53;100.00;102852.78;2089833;28;20513;-67
2022/01/11 00:22:25;;;;;;;31.38;9.98;;;;;;;-1.53;100.00;102851.13;2090527;28;20028;-67
2022/01/11 00:24:28;;;;;;;29.77;10.88;;;;;;;-1.53;100.00;102846.00;2090636;28;20032;-67
2022/01/11 00:25:32;;;;;;;39.58;11.60;;;;;;;-1.53;100.00;102852.78;2090355;28;20100;-67
2022/01/11 00:26:32;;;;;;;27.42;10.50;;;;;;;-1.51;100.00;102848.63;2090228;28;20059;-68
2022/01/11 00:27:32;;;;;;;23.33;10.60;;;;;;;-1.47;100.00;102847.94;2090348;28;20028;-68
2022/01/11 00:28:32;;;;;;;38.00;11.13;;;;;;;-1.47;100.00;102851.34;2090462;28;20029;-68
2022/01/11 00:29:36;;;;;;;42.43;11.73;;;;;;;-1.48;100.00;102843.59;2090438;28;20049;-68
2022/01/11 00:30:39;;;;;;;21.60;10.30;;;;;;;-1.47;100.00;102851.34;2090442;28;20032;-68
2022/01/11 00:31:40;;;;;;;28.52;11.57;;;;;;;-1.45;100.00;102843.72;2090363;28;20029;-68
2022/01/11 00:32:46;;;;;;;35.05;12.75;;;;;;;-1.47;100.00;102846.22;2089758;28;20041;-67
2022/01/11 00:33:47;;;;;;;28.60;10.38;;;;;;;-1.46;100.00;102852.22;2089776;28;20546;-67
2022/01/11 00:34:52;;;;;;;28.90;11.90;;;;;;;-1.44;100.00;102850.59;2089630;28;20025;-66
2022/01/11 00:36:00;;;;;;;21.80;10.70;;;;;;;-1.45;100.00;102851.41;2089757;28;20453;-67
2022/01/11 00:37:01;;;;;;;34.83;14.55;;;;;;;-1.45;100.00;102846.28;2090262;28;20191;-67
2022/01/11 00:38:01;;;;;;;24.67;12.27;;;;;;;-1.42;100.00;102848.97;2089674;28;20021;-68
2022/01/11 00:39:01;;;;;;;28.13;12.70;;;;;;;-1.41;100.00;102854.97;2089751;28;20013;-67
2022/01/11 00:40:04;;;;;;;37.23;15.17;;;;;;;-1.44;100.00;102845.47;2090338;28;20036;-67
2022/01/11 00:41:10;;;;;;;29.23;13.02;;;;;;;-1.44;100.00;102850.59;2090333;28;20056;-67
2022/01/11 00:42:14;;;;;;;25.95;11.52;;;;;;;-1.41;100.00;102845.59;2089622;28;20021;-67
2022/01/11 00:43:19;;;;;;;29.88;13.00;;;;;;;-1.40;100.00;102844.81;2089730;28;20080;-68
2022/01/11 00:44:20;;;;;;;26.17;12.43;;;;;;;-1.36;100.00;102840.66;2090240;28;20025;-68
2022/01/11 00:45:20;;;;;;;33.57;13.57;;;;;;;-1.35;100.00;102840.72;2090348;28;20025;-68
2022/01/11 00:46:20;;;;;;;29.13;12.20;;;;;;;-1.36;100.00;102838.97;2089565;28;20033;-68
2022/01/11 00:47:21;;;;;;;30.30;13.33;;;;;;;-1.35;100.00;102837.28;2089746;28;20390;-69
2022/01/11 00:48:21;;;;;;;29.57;13.93;;;;;;;-1.37;100.00;102832.09;2089907;28;20083;-68
2022/01/11 00:49:22;;;;;;;26.63;11.93;;;;;;;-1.36;100.00;102830.41;2089662;28;20043;-67
2022/01/11 00:50:24;;;;;;;27.93;11.97;;;;;;;-1.33;100.00;102838.22;2090129;28;20024;-68
2022/01/11 00:51:24;;;;;;;24.10;12.15;;;;;;;-1.32;100.00;102833.16;2090250;28;20074;-68
2022/01/11 00:52:25;;;;;;;25.67;11.60;;;;;;;-1.33;100.00;102828.84;2090272;28;20075;-68
2022/01/11 00:53:25;;;;;;;23.10;12.30;;;;;;;-1.34;100.00;102833.88;2090293;28;20425;-68
2022/01/11 00:54:26;;;;;;;25.90;11.40;;;;;;;-1.35;100.00;102833.03;2090301;28;20152;-67
2022/01/11 00:55:26;;;;;;;23.13;11.45;;;;;;;-1.35;100.00;102833.03;2090210;28;20037;-68
2022/01/11 00:56:26;;;;;;;28.40;14.20;;;;;;;-1.35;100.00;102835.59;2089553;28;20024;-68
2022/01/11 00:57:26;;;;;;;25.13;12.90;;;;;;;-1.33;100.00;102830.53;2089520;28;20395;-67
2022/01/11 00:58:27;;;;;;;25.80;12.63;;;;;;;-1.35;100.00;102835.59;2089564;28;20104;-68
2022/01/11 00:59:28;;;;;;;25.30;12.70;;;;;;;-1.33;100.00;102841.63;2081276;28;20033;-66
2022/01/11 01:00:29;;;;;;;23.58;12.32;;;;;;;-1.34;100.00;102833.88;2089565;28;20029;-68
2022/01/11 01:01:37;;;;;;;26.02;11.80;;;;;;;-1.33;100.00;102833.97;2089413;28;20075;-68
2022/01/11 01:02:38;;;;;;;25.25;11.63;;;;;;;-1.32;100.00;102830.59;2089580;28;20040;-68
2022/01/11 01:03:39;;;;;;;;;;;;;;;-1.30;100.00;102839.22;2090512;28;20481;-67
2022/01/11 01:04:39;;;;;;;28.75;13.18;;;;;;;-1.31;100.00;102832.34;2090162;28;20008;-68
2022/01/11 01:05:40;;;;;;;23.37;12.27;;;;;;;-1.28;100.00;102840.94;2090126;28;20051;-68
2022/01/11 01:06:41;;;;;;;25.25;10.85;;;;;;;-1.26;100.00;102835.09;2089481;28;20474;-68
2022/01/11 01:07:42;;;;;;;28.13;12.32;;;;;;;-1.25;100.00;102838.50;2089522;28;20056;-68
2022/01/11 01:08:42;;;;;;;22.30;11.33;;;;;;;-1.27;100.00;102838.44;2090124;28;20021;-67
2022/01/11 01:11:18;;;;;;;23.88;10.57;;;;;;;-1.25;100.00;102844.53;2089139;28;20493;-67
2022/01/11 01:12:18;;;;;;;27.10;12.37;;;;;;;-1.24;100.00;102842.81;2089215;28;20025;-68
2022/01/11 01:13:25;;;;;;;23.83;12.37;;;;;;;-1.23;100.00;102847.16;2081392;28;20142;-68
2022/01/11 01:14:25;;;;;;;24.80;11.38;;;;;;;-1.22;100.00;102846.31;2089494;28;20053;-67
2022/01/11 01:15:26;;;;;;;22.40;12.37;;;;;;;-1.23;100.00;102844.59;2090071;28;20164;-68
2022/01/11 01:16:26;;;;;;;;;;;;;;;-1.21;100.00;102853.19;2090540;28;20704;-68
2022/01/11 01:17:27;;;;;;;27.80;13.63;;;;;;;-1.21;100.00;102850.63;2090063;28;19908;-68
2022/01/11 01:18:29;;;;;;;23.33;11.60;;;;;;;-1.21;100.00;102854.06;2090108;28;20478;-66
2022/01/11 01:19:30;;;;;;;27.65;11.85;;;;;;;-1.21;100.00;102848.06;2090036;28;20024;-67
2022/01/11 01:20:30;;;;;;;26.33;11.80;;;;;;;-1.21;100.00;102850.63;2090051;28;20028;-67
2022/01/11 01:21:36;;;;;;;26.42;13.27;;;;;;;-1.25;100.00;102844.53;2089302;28;20424;-66
2022/01/11 01:22:37;;;;;;;24.13;12.23;;;;;;;-1.27;100.00;102847.84;2089423;28;20420;-68
2022/01/11 01:23:38;;;;;;;29.98;13.23;;;;;;;-1.27;100.00;102837.59;2090010;28;20033;-68
2022/01/11 01:24:38;;;;;;;21.17;10.73;;;;;;;-1.24;100.00;102847.94;2090021;28;20056;-67
2022/01/11 01:25:41;;;;;;;27.07;13.10;;;;;;;-1.24;100.00;102846.25;2089880;28;20098;-67
2022/01/11 01:26:41;;;;;;;26.92;14.02;;;;;;;-1.28;100.00;102843.50;2089927;28;20299;-67
2022/01/11 01:27:41;;;;;;;25.03;12.27;;;;;;;-1.30;100.00;102844.34;2089203;28;20494;-67
2022/01/11 01:28:41;;;;;;;29.60;13.47;;;;;;;-1.28;100.00;102843.50;2089433;28;20021;-67
2022/01/11 01:29:42;;;;;;;28.30;13.10;;;;;;;-1.28;100.00;102846.06;2089941;28;20501;-67
2022/01/11 01:30:42;;;;;;;24.43;10.97;;;;;;;-1.28;100.00;102852.09;2089390;28;20041;-67
2022/01/11 01:31:43;;;;;;;21.90;12.03;;;;;;;-1.29;100.00;102850.34;2081071;28;20036;-67
2022/01/11 01:32:44;;;;;;;28.40;11.87;;;;;;;-1.30;100.00;102844.34;2089439;28;20027;-68
2022/01/11 01:33:45;;;;;;;25.80;12.40;;;;;;;-1.27;100.00;102847.84;2089302;28;20036;-68
2022/01/11 01:34:46;;;;;;;25.23;12.63;;;;;;;-1.25;100.00;102846.19;2089437;28;20048;-67
2022/01/11 01:35:53;;;;;;;27.38;12.07;;;;;;;-1.25;100.00;102851.31;2089965;28;20040;-68
2022/01/11 01:36:53;;;;;;;24.98;11.98;;;;;;;-1.26;100.00;102853.03;2089191;28;20024;-68
2022/01/11 01:37:54;;;;;;;28.95;12.85;;;;;;;-1.25;100.00;102852.22;2089252;28;20112;-68
2022/01/11 01:38:54;;;;;;;23.13;10.93;;;;;;;-1.24;100.00;102855.63;2089265;28;20159;-68
2022/01/11 01:39:55;;;;;;;27.93;13.10;;;;;;;-1.22;100.00;102854.00;2089916;28;20017;-68
2022/01/11 01:41:01;;;;;;;22.33;10.73;;;;;;;-1.21;100.00;102853.19;2089984;28;20024;-69
2022/01/11 01:42:04;;;;;;;28.05;11.65;;;;;;;-1.17;100.00;102847.38;2089297;28;20127;-69
2022/01/11 01:43:08;;;;;;;29.42;12.77;;;;;;;-1.15;100.00;102845.75;2089352;28;20510;-69
2022/01/11 01:44:09;;;;;;;26.00;11.68;;;;;;;-1.12;100.00;102853.56;2089888;28;20419;-69
2022/01/11 01:45:09;;;;;;;27.00;12.70;;;;;;;-1.13;100.00;102849.22;2089982;28;20021;-69
2022/01/11 01:46:10;;;;;;;27.05;12.60;;;;;;;-1.15;100.00;102848.31;2090010;28;20064;-67
2022/01/11 01:47:12;;;;;;;23.40;12.70;;;;;;;-1.18;100.00;102848.19;2089286;28;20025;-68
2022/01/11 01:48:13;;;;;;;27.70;12.35;;;;;;;-1.18;100.00;102848.19;2089188;28;20059;-67
2022/01/11 01:49:19;;;;;;;29.77;14.07;;;;;;;-1.19;100.00;102849.00;2080914;28;20025;-67
2022/01/11 01:50:20;;;;;;;28.63;13.35;;;;;;;-1.17;100.00;102855.06;2081686;28;20048;-67
2022/01/11 01:51:20;;;;;;;26.20;14.17;;;;;;;-1.15;100.00;102858.56;2080973;28;20068;-68
2022/01/11 01:52:21;;;;;;;28.33;14.45;;;;;;;-1.20;100.00;102850.69;2089331;28;20029;-68
2022/01/11 01:53:22;;;;;;;26.97;14.07;;;;;;;-1.19;100.00;102857.56;2089857;28;20130;-67
2022/01/11 01:54:23;;;;;;;28.02;13.27;;;;;;;-1.18;100.00;102853.31;2089908;28;20069;-67
2022/01/11 01:55:25;;;;;;;25.20;14.18;;;;;;;-1.18;100.00;102848.19;2089876;28;20028;-67
2022/01/11 01:56:27;;;;;;;30.63;14.45;;;;;;;-1.16;100.00;102851.69;2089822;28;20389;-67
2022/01/11 01:57:27;;;;;;;27.98;14.18;;;;;;;-1.15;100.00;102850.00;2089862;28;20062;-68
2022/01/11 01:58:29;;;;;;;28.97;13.60;;;;;;;-1.17;100.00;102847.38;2089840;28;20086;-67
2022/01/11 01:59:30;;;;;;;24.52;12.93;;;;;;;-1.19;100.00;102843.88;2089999;28;20054;-66
2022/01/11 02:00:30;;;;;;;30.70;14.10;;;;;;;-1.21;100.00;102842.94;2090299;28;20063;-67
2022/01/11 02:01:39;;;;;;;27.02;13.90;;;;;;;-1.22;100.00;102851.44;2090812;28;20033;-67
2022/01/11 02:02:39;;;;;;;26.65;13.63;;;;;;;-1.22;100.00;102848.88;2091481;28;20397;-66
2022/01/11 02:03:41;;;;;;;26.43;11.80;;;;;;;-1.23;100.00;102850.56;2091376;28;20017;-68
2022/01/11 02:04:42;;;;;;;25.13;13.80;;;;;;;-1.23;100.00;102857.41;2091398;28;20683;-68
2022/01/11 02:05:43;;;;;;;25.67;13.30;;;;;;;-1.23;100.00;102857.41;2091549;28;20025;-67
2022/01/11 02:06:44;;;;;;;;;;;;;;;-1.22;100.00;102862.59;2091888;28;20056;-68
2022/01/11 02:07:44;;;;;;;26.63;12.82;;;;;;;-1.22;100.00;102856.56;2090722;28;19920;-66
2022/01/11 02:08:46;;;;;;;31.47;13.20;;;;;;;-1.23;100.00;102862.53;2090906;28;20490;-68
2022/01/11 02:09:46;;;;;;;25.27;12.95;;;;;;;-1.24;100.00;102863.31;2091494;28;20116;-66
2022/01/11 02:10:46;;;;;;;27.43;14.57;;;;;;;-1.30;100.00;102859.69;2091433;28;20062;-67
2022/01/11 02:11:47;;;;;;;27.40;15.17;;;;;;;-1.31;100.00;102863.09;2091470;28;20413;-67
2022/01/11 02:12:48;;;;;;;27.83;14.00;;;;;;;-1.30;100.00;102859.69;2090810;28;20104;-68
2022/01/11 02:13:49;;;;;;;29.00;14.17;;;;;;;-1.31;100.00;102863.09;2082632;28;20022;-67
2022/01/11 02:14:49;;;;;;;25.45;11.93;;;;;;;-1.32;100.00;102856.22;2090839;28;20291;-68
2022/01/11 02:15:51;;;;;;;26.17;12.50;;;;;;;-1.32;100.00;102863.03;2091397;28;20044;-68
2022/01/11 02:16:51;;;;;;;27.25;14.00;;;;;;;-1.33;100.00;102869.81;2091477;28;20032;-68
2022/01/11 02:17:52;;;;;;;24.70;11.47;;;;;;;-1.32;100.00;102869.03;2090763;28;20036;-67
2022/01/11 02:18:53;;;;;;;27.27;13.20;;;;;;;-1.31;100.00;102863.09;2082479;28;20433;-68
2022/01/11 02:19:57;;;;;;;27.13;13.57;;;;;;;-1.33;100.00;102866.41;2090674;28;20524;-67
2022/01/11 02:20:58;;;;;;;25.80;12.77;;;;;;;-1.34;100.00;102867.19;2090661;28;20021;-67
2022/01/11 02:21:59;;;;;;;;;;;;;;;-1.32;100.00;102866.47;2082939;28;20076;-68
2022/01/11 02:22:59;;;;;;;21.25;10.13;;;;;;;-1.33;100.00;102864.69;2082545;28;19984;-67
2022/01/11 02:24:00;;;;;;;24.27;12.33;;;;;;;-1.33;100.00;102863.84;2090691;28;20027;-68
2022/01/11 02:25:00;;;;;;;22.48;11.30;;;;;;;-1.33;100.00;102858.72;2091333;28;20033;-67
2022/01/11 02:26:01;;;;;;;22.50;10.87;;;;;;;-1.37;100.00;102865.41;2090609;28;20490;-68
2022/01/11 02:27:01;;;;;;;24.77;12.80;;;;;;;-1.39;100.00;102869.59;2090735;28;20025;-67
2022/01/11 02:28:02;;;;;;;25.03;12.53;;;;;;;-1.39;100.00;102869.59;2091240;28;20051;-68
2022/01/11 02:29:03;;;;;;;24.63;12.35;;;;;;;-1.39;100.00;102877.28;2091310;28;20082;-68
2022/01/11 02:30:05;;;;;;;22.97;12.07;;;;;;;-1.39;100.00;102872.16;2091288;28;20075;-69
2022/01/11 02:31:12;;;;;;;25.83;12.77;;;;;;;-1.37;100.00;102877.34;2091269;28;20283;-68
2022/01/11 02:32:12;;;;;;;23.52;11.60;;;;;;;-1.37;100.00;102875.63;2091332;28;20099;-67
2022/01/11 02:33:30;;;;;;;29.23;13.23;;;;;;;-1.37;100.00;102885.88;2091280;28;20068;-69
2022/01/11 02:34:31;;;;;;;24.52;11.20;;;;;;;-1.36;100.00;102877.41;2091242;28;20506;-68
2022/01/11 02:35:31;;;;;;;25.07;12.07;;;;;;;-1.34;100.00;102883.44;2090571;28;20032;-69
2022/01/11 02:36:35;;;;;;;23.67;12.43;;;;;;;-1.31;100.00;102885.25;2090636;28;20033;-68
2022/01/11 02:37:41;;;;;;;26.83;12.60;;;;;;;-1.33;100.00;102881.78;2091153;28;20107;-67
2022/01/11 02:38:41;;;;;;;25.52;12.73;;;;;;;-1.35;100.00;102889.41;2090506;28;20482;-67
2022/01/11 02:39:45;;;;;;;29.03;14.67;;;;;;;-1.38;100.00;102889.28;2090440;28;20025;-66
2022/01/11 02:40:45;;;;;;;25.48;13.38;;;;;;;-1.42;100.00;102887.41;2090637;28;20025;-68
2022/01/11 02:41:56;;;;;;;23.50;12.30;;;;;;;-1.40;100.00;102892.59;2091153;28;20033;-67
2022/01/11 02:42:56;;;;;;;26.35;12.90;;;;;;;-1.40;100.00;102888.34;2090567;28;20306;-68
2022/01/11 02:43:57;;;;;;;23.97;10.93;;;;;;;-1.40;100.00;102893.47;2090574;28;20115;-67
2022/01/11 02:44:58;;;;;;;22.60;11.23;;;;;;;-1.42;100.00;102895.09;2090675;28;20071;-67
2022/01/11 02:46:00;;;;;;;26.93;11.23;;;;;;;-1.41;100.00;102896.81;2082292;28;20441;-68
2022/01/11 02:47:00;;;;;;;21.58;11.00;;;;;;;-1.40;100.00;102898.59;2090496;28;20091;-68
2022/01/11 02:48:00;;;;;;;26.80;12.77;;;;;;;-1.40;100.00;102893.47;2091056;28;20406;-67
2022/01/11 02:49:01;;;;;;;28.77;13.80;;;;;;;-1.42;100.00;102895.09;2091114;28;20124;-68
2022/01/11 02:50:01;;;;;;;27.70;13.00;;;;;;;-1.44;100.00;102896.69;2091176;28;20028;-69
2022/01/11 02:51:03;;;;;;;26.27;13.90;;;;;;;-1.46;100.00;102900.91;2091145;28;20037;-67
2022/01/11 02:52:04;;;;;;;26.85;13.85;;;;;;;-1.48;100.00;102894.81;2091112;28;20367;-68
2022/01/11 02:53:04;;;;;;;25.60;11.98;;;;;;;-1.47;100.00;102897.44;2091162;28;20027;-68
2022/01/11 02:54:05;;;;;;;23.13;12.60;;;;;;;-1.45;100.00;102900.06;2091165;28;20024;-68
2022/01/11 02:55:11;;;;;;;26.65;12.43;;;;;;;-1.46;100.00;102898.34;2091144;28;20021;-68
2022/01/11 02:56:12;;;;;;;26.92;13.48;;;;;;;-1.47;100.00;102896.59;2090405;28;20067;-69
2022/01/11 02:57:13;;;;;;;;;;;;;;;-1.49;100.00;102898.19;2090872;28;20021;-68
2022/01/11 02:58:13;;;;;;;27.90;13.10;;;;;;;-1.52;100.00;102903.19;2091039;28;19915;-67
2022/01/11 02:59:14;;;;;;;26.95;12.68;;;;;;;-1.54;100.00;102899.72;2090394;28;20063;-68
2022/01/11 03:00:17;;;;;;;24.53;12.70;;;;;;;-1.58;100.00;102899.56;2082110;28;20022;-67
2022/01/11 03:01:18;;;;;;;26.15;13.02;;;;;;;-1.58;100.00;102894.44;2090406;28;20461;-68
2022/01/11 03:02:18;;;;;;;26.30;12.68;;;;;;;-1.59;100.00;102897.84;2091102;28;20028;-68
2022/01/11 03:03:23;;;;;;;27.17;11.90;;;;;;;-1.57;100.00;102906.44;2091125;28;20444;-69
2022/01/11 03:04:28;;;;;;;23.58;11.63;;;;;;;-1.53;100.00;102919.38;2090326;28;20405;-69
2022/01/11 03:05:28;;;;;;;24.33;11.57;;;;;;;-1.52;100.00;102909.19;2090405;28;20032;-69
2022/01/11 03:06:29;;;;;;;23.77;11.63;;;;;;;-1.49;100.00;102913.56;2090444;28;20483;-69
2022/01/11 03:07:29;;;;;;;26.77;12.97;;;;;;;-1.52;100.00;102909.19;2090979;28;20032;-67
2022/01/11 03:08:33;;;;;;;28.87;12.43;;;;;;;-1.53;100.00;102912.56;2090951;28;20079;-68
2022/01/11 03:09:47;;;;;;;26.27;13.43;;;;;;;-1.52;100.00;102910.88;2090314;28;20122;-68
2022/01/11 03:10:50;;;;;;;27.80;13.27;;;;;;;-1.52;100.00;102908.31;2090479;28;20029;-68
2022/01/11 03:11:50;;;;;;;25.95;11.95;;;;;;;-1.52;100.00;102910.88;2090132;28;20454;-68
2022/01/11 03:12:51;;;;;;;23.80;11.07;;;;;;;-1.51;100.00;102907.53;2090874;28;20029;-68
2022/01/11 03:13:51;;;;;;;25.40;12.80;;;;;;;-1.49;100.00;102908.44;2090297;28;20413;-69
2022/01/11 03:14:51;;;;;;;24.90;12.20;;;;;;;-1.49;100.00;102904.22;2090435;28;20021;-68
2022/01/11 03:15:53;;;;;;;27.57;13.90;;;;;;;-1.48;100.00;102910.19;2090936;28;20028;-69
2022/01/11 03:16:53;;;;;;;28.63;14.07;;;;;;;-1.49;100.00;102913.56;2090984;28;20017;-68
2022/01/11 03:17:54;;;;;;;25.23;13.40;;;;;;;-1.51;100.00;102910.09;2090984;28;20009;-67
2022/01/11 03:18:54;;;;;;;26.20;12.73;;;;;;;-1.50;100.00;102912.72;2091208;28;20059;-68
2022/01/11 03:19:54;;;;;;;23.73;11.67;;;;;;;-1.51;100.00;102904.97;2090896;28;20048;-68
2022/01/11 03:20:54;;;;;;;27.83;13.50;;;;;;;-1.51;100.00;102908.38;2090903;28;20024;-69
2022/01/11 03:21:55;;;;;;;26.03;13.50;;;;;;;-1.51;100.00;102908.38;2090875;28;20020;-68
2022/01/11 03:22:55;;;;;;;24.20;11.13;;;;;;;-1.51;100.00;102912.66;2090911;28;20093;-68
2022/01/11 03:23:57;;;;;;;26.60;12.47;;;;;;;-1.51;100.00;102899.84;2091010;28;20029;-68
2022/01/11 03:24:58;;;;;;;25.25;13.23;;;;;;;-1.49;100.00;102913.56;2090858;28;20310;-68
2022/01/11 03:26:01;;;;;;;27.20;12.77;;;;;;;-1.51;100.00;102908.38;2090852;28;20100;-68
2022/01/11 03:27:05;;;;;;;25.58;12.43;;;;;;;-1.51;100.00;102910.94;2090885;28;20100;-69
2022/01/11 03:28:05;;;;;;;26.55;12.02;;;;;;;-1.52;100.00;102916.00;2090745;28;20036;-68
2022/01/11 03:29:05;;;;;;;28.63;12.80;;;;;;;-1.51;100.00;102908.38;2090821;28;20466;-68
2022/01/11 03:30:07;;;;;;;25.50;12.80;;;;;;;-1.52;100.00;102903.19;2090768;28;20029;-68
2022/01/11 03:31:07;;;;;;;24.60;12.60;;;;;;;-1.51;100.00;102902.41;2090856;28;20056;-68
2022/01/11 03:32:12;;;;;;;30.40;13.93;;;;;;;-1.52;100.00;102905.75;2090858;28;20013;-69
2022/01/11 03:33:12;;;;;;;23.30;11.82;;;;;;;-1.50;100.00;102901.56;2090871;28;20045;-69
2022/01/11 03:34:18;;;;;;;26.23;14.07;;;;;;;-1.52;100.00;102910.88;2090846;28;20028;-68
2022/01/11 03:35:19;;;;;;;27.52;13.85;;;;;;;-1.57;100.00;102901.31;2090807;28;20052;-68
2022/01/11 03:36:19;;;;;;;27.98;13.07;;;;;;;-1.57;100.00;102905.59;2090903;28;20052;-69
2022/01/11 03:37:20;;;;;;;25.73;13.13;;;;;;;-1.60;100.00;102906.34;2090816;28;20024;-69
2022/01/11 03:38:22;;;;;;;25.00;13.50;;;;;;;-1.58;100.00;102902.13;2090885;28;20025;-69
2022/01/11 03:39:22;;;;;;;29.92;14.27;;;;;;;-1.61;100.00;102901.16;2090750;28;20031;-68
2022/01/11 03:40:24;;;;;;;25.47;12.63;;;;;;;-1.61;100.00;102903.72;2090776;28;20041;-68
2022/01/11 03:41:24;;;;;;;22.85;12.15;;;;;;;-1.62;100.00;102902.81;2090127;28;20039;-68
2022/01/11 03:42:25;;;;;;;25.33;11.70;;;;;;;-1.62;100.00;102905.38;2090158;28;20028;-68
2022/01/11 03:43:26;;;;;;;23.60;12.95;;;;;;;-1.62;100.00;102900.25;2090359;28;20021;-67
2022/01/11 03:44:26;;;;;;;24.48;13.05;;;;;;;-1.62;100.00;102894.25;2090867;28;20029;-67
2022/01/11 03:45:26;;;;;;;26.17;12.17;;;;;;;-1.62;100.00;102895.13;2090877;28;20374;-67
2022/01/11 03:46:27;;;;;;;23.87;12.60;;;;;;;-1.62;100.00;102890.00;2090831;28;20025;-67
2022/01/11 03:47:27;;;;;;;23.70;12.93;;;;;;;-1.62;100.00;102892.56;2090729;28;20105;-67
2022/01/11 03:48:27;;;;;;;23.37;12.23;;;;;;;-1.62;100.00;102882.34;2090681;28;20040;-67
2022/01/11 03:49:28;;;;;;;26.03;12.57;;;;;;;-1.62;100.00;102887.44;2090691;28;20032;-68
2022/01/11 03:50:30;;;;;;;22.60;11.77;;;;;;;-1.61;100.00;102889.19;2090668;28;20528;-67
2022/01/11 03:51:34;;;;;;;29.13;13.70;;;;;;;-1.61;100.00;102890.91;2090620;28;20082;-68
2022/01/11 03:52:35;;;;;;;27.65;12.10;;;;;;;-1.64;100.00;102889.06;2090553;28;20025;-67
2022/01/11 03:53:49;;;;;;;28.48;14.82;;;;;;;-1.67;100.00;102894.09;2090684;28;20072;-69
2022/01/11 03:56:56;;;;;;;28.87;13.27;;;;;;;-1.65;100.00;102894.16;2090855;28;20103;-68
2022/01/11 03:57:57;;;;;;;23.35;11.50;;;;;;;-1.66;100.00;102898.38;2090712;28;20028;-68
2022/01/11 03:58:57;;;;;;;23.77;11.03;;;;;;;-1.65;100.00;102907.81;2090648;28;20446;-69
2022/01/11 04:00:00;;;;;;;23.97;12.67;;;;;;;-1.65;100.00;102907.81;2090613;28;20028;-68
2022/01/11 04:01:00;;;;;;;24.50;11.63;;;;;;;-1.64;100.00;102909.53;2090525;28;20272;-69
2022/01/11 04:02:00;;;;;;;22.50;12.13;;;;;;;-1.63;100.00;102911.31;2090588;28;20104;-68
2022/01/11 04:03:01;;;;;;;27.40;12.60;;;;;;;-1.60;100.00;102914.00;2090683;28;20027;-68
2022/01/11 04:04:02;;;;;;;25.37;12.87;;;;;;;-1.60;100.00;102906.34;2090584;28;20025;-69
2022/01/11 04:05:03;;;;;;;27.52;14.15;;;;;;;-1.60;100.00;102905.44;2090559;28;20040;-69
2022/01/11 04:06:03;;;;;;;26.00;13.18;;;;;;;-1.59;100.00;102902.06;2090565;28;20382;-68
2022/01/11 04:07:04;;;;;;;28.33;15.27;;;;;;;-1.60;100.00;102910.56;2090652;28;20056;-67
2022/01/11 04:08:04;;;;;;;27.85;14.23;;;;;;;-1.61;100.00;102912.25;2090507;28;20025;-68
2022/01/11 04:09:07;;;;;;;24.05;11.20;;;;;;;-1.60;100.00;102908.91;2090548;28;20048;-69
2022/01/11 04:10:08;;;;;;;25.60;12.73;;;;;;;-1.59;100.00;102913.19;2090562;28;20017;-70
2022/01/11 04:11:09;;;;;;;25.92;13.30;;;;;;;-1.59;100.00;102914.88;2090601;28;20027;-69
2022/01/11 04:12:09;;;;;;;24.45;12.05;;;;;;;-1.57;100.00;102919.25;2090740;28;20075;-69
2022/01/11 04:13:10;;;;;;;24.40;12.80;;;;;;;-1.58;100.00;102920.06;2090527;28;20454;-68
2022/01/11 04:14:10;;;;;;;23.70;13.60;;;;;;;-1.58;100.00;102920.06;2090600;28;20038;-69
2022/01/11 04:15:10;;;;;;;22.33;11.50;;;;;;;-1.56;100.00;102923.56;2090555;28;20071;-69
2022/01/11 04:16:11;;;;;;;22.27;11.47;;;;;;;-1.54;100.00;102927.88;2089891;28;20031;-69
2022/01/11 04:17:11;;;;;;;23.43;12.80;;;;;;;-1.56;100.00;102920.13;2089860;28;20032;-69
2022/01/11 04:18:12;;;;;;;23.10;12.02;;;;;;;-1.58;100.00;102914.06;2089938;28;20037;-69
2022/01/11 04:19:12;;;;;;;25.23;13.20;;;;;;;-1.61;100.00;102924.19;2081579;28;20038;-68
2022/01/11 04:20:14;;;;;;;23.90;12.97;;;;;;;-1.63;100.00;102916.44;2081567;28;20402;-68
2022/01/11 04:21:14;;;;;;;27.17;12.68;;;;;;;-1.65;100.00;102910.38;2089832;28;20036;-69
2022/01/11 04:22:15;;;;;;;22.73;11.90;;;;;;;-1.66;100.00;102915.41;2089838;28;20429;-68
2022/01/11 04:23:15;;;;;;;24.67;13.07;;;;;;;-1.69;100.00;102916.16;2089873;28;20025;-67
2022/01/11 04:24:15;;;;;;;25.13;12.03;;;;;;;-1.70;100.00;102909.31;2090428;28;20667;-69
2022/01/11 04:25:17;;;;;;;26.40;13.87;;;;;;;-1.72;100.00;102910.91;2089679;28;20044;-68
2022/01/11 04:26:17;;;;;;;22.27;11.60;;;;;;;-1.73;100.00;102909.16;2089649;28;20351;-68
2022/01/11 04:27:17;;;;;;;23.30;13.83;;;;;;;-1.76;100.00;102914.16;2089690;28;20021;-68
2022/01/11 04:28:18;;;;;;;22.80;12.10;;;;;;;-1.75;100.00;102918.50;2089726;28;20466;-67
2022/01/11 04:29:18;;;;;;;26.77;12.83;;;;;;;-1.77;100.00;102914.97;2090287;28;20048;-68
2022/01/11 04:30:19;;;;;;;25.57;12.77;;;;;;;-1.78;100.00;102920.91;2090374;28;20528;-68
2022/01/11 04:31:19;;;;;;;23.00;12.43;;;;;;;-1.79;100.00;102924.28;2090431;28;20337;-67
2022/01/11 04:32:19;;;;;;;24.92;13.00;;;;;;;-1.78;100.00;102920.91;2090329;28;20493;-67
2022/01/11 04:33:20;;;;;;;23.67;12.83;;;;;;;-1.78;100.00;102926.88;2090356;28;20043;-67
2022/01/11 04:34:20;;;;;;;26.47;14.33;;;;;;;-1.81;100.00;102927.63;2090289;28;20021;-68
2022/01/11 04:35:20;;;;;;;25.67;13.17;;;;;;;-1.80;100.00;102925.97;2090337;28;20033;-68
2022/01/11 04:36:21;;;;;;;26.03;12.27;;;;;;;-1.81;100.00;102921.66;2090330;28;20458;-68
2022/01/11 04:37:21;;;;;;;25.03;11.97;;;;;;;-1.79;100.00;102934.53;2090341;28;20037;-69
2022/01/11 04:38:25;;;;;;;23.73;11.57;;;;;;;-1.81;100.00;102926.78;2090237;28;20447;-68
2022/01/11 04:39:25;;;;;;;27.25;14.20;;;;;;;-1.82;100.00;102930.13;2089546;28;20104;-68
2022/01/11 04:40:26;;;;;;;25.50;13.47;;;;;;;-1.84;100.00;102932.63;2081369;28;20035;-69
2022/01/11 04:41:26;;;;;;;26.17;11.83;;;;;;;-1.86;100.00;102934.25;2089608;28;20151;-69
2022/01/11 04:42:26;;;;;;;26.70;13.93;;;;;;;-1.85;100.00;102932.59;2090354;28;20028;-69
2022/01/11 04:43:27;;;;;;;27.30;13.93;;;;;;;-1.83;100.00;102936.94;2090435;28;20032;-68